sensor_id;sensor_type;location;lat;lon;timestamp;P1;durP1;ratioP1;P2;durP2;ratioP2
51451;SDS011;37521;52.020;-1.740;2023-08-21T00:00:03;1.10;;;0.63;;
51451;SDS011;37521;52.020;-1.740;2023-08-21T00:02:32;1.55;;;0.73;;
51451;SDS011;37521;52.020;-1.740;2023-08-21T00:05:01;1.08;;;0.90;;
51451;SDS011;37521;52.020;-1.740;2023-08-21T00:07:31;1.20;;;0.63;;
51451;SDS011;37521;52.020;-1.740;2023-08-21T00:10:00;1.85;;;0.70;;
51451;SDS011;37521;52.020;-1.740;2023-08-21T00:12:28;1.67;;;0.80;;
51451;SDS011;37521;52.020;-1.740;2023-08-21T00:14:57;2.00;;;0.70;;
51451;SDS011;37521;52.020;-1.740;2023-08-21T00:17:25;2.00;;;0.77;;
51451;SDS011;37521;52.020;-1.740;2023-08-21T00:19:54;1.40;;;0.65;;
51451;SDS011;37521;52.020;-1.740;2023-08-21T00:22:22;2.20;;;0.80;;
51451;SDS011;37521;52.020;-1.740;2023-08-21T00:24:52;1.50;;;0.70;;
51451;SDS011;37521;52.020;-1.740;2023-08-21T00:27:20;3.85;;;0.63;;
51451;SDS011;37521;52.020;-1.740;2023-08-21T00:29:49;1.13;;;0.50;;
51451;SDS011;37521;52.020;-1.740;2023-08-21T00:32:17;0.88;;;0.80;;
51451;SDS011;37521;52.020;-1.740;2023-08-21T00:34:46;2.80;;;0.77;;
51451;SDS011;37521;52.020;-1.740;2023-08-21T00:37:14;1.15;;;0.65;;
51451;SDS011;37521;52.020;-1.740;2023-08-21T00:39:43;3.13;;;1.23;;
51451;SDS011;37521;52.020;-1.740;2023-08-21T00:42:13;3.40;;;0.95;;
51451;SDS011;37521;52.020;-1.740;2023-08-21T00:44:41;2.13;;;0.60;;
51451;SDS011;37521;52.020;-1.740;2023-08-21T00:47:09;2.83;;;1.10;;
51451;SDS011;37521;52.020;-1.740;2023-08-21T00:49:38;1.23;;;0.50;;
51451;SDS011;37521;52.020;-1.740;2023-08-21T00:52:06;1.58;;;0.82;;
51451;SDS011;37521;52.020;-1.740;2023-08-21T00:54:38;2.15;;;0.85;;
51451;SDS011;37521;52.020;-1.740;2023-08-21T00:57:07;0.93;;;0.80;;
51451;SDS011;37521;52.020;-1.740;2023-08-21T00:59:38;1.42;;;0.73;;
51451;SDS011;37521;52.020;-1.740;2023-08-21T01:02:07;1.02;;;0.93;;
51451;SDS011;37521;52.020;-1.740;2023-08-21T01:04:35;1.45;;;0.80;;
51451;SDS011;37521;52.020;-1.740;2023-08-21T01:07:04;0.70;;;0.43;;
51451;SDS011;37521;52.020;-1.740;2023-08-21T01:09:39;2.53;;;0.95;;
51451;SDS011;37521;52.020;-1.740;2023-08-21T01:12:14;1.45;;;0.82;;
51451;SDS011;37521;52.020;-1.740;2023-08-21T01:14:54;1.45;;;0.57;;
51451;SDS011;37521;52.020;-1.740;2023-08-21T01:17:29;1.98;;;0.65;;
51451;SDS011;37521;52.020;-1.740;2023-08-21T01:19:58;1.27;;;0.93;;
51451;SDS011;37521;52.020;-1.740;2023-08-21T01:22:27;2.17;;;0.80;;
51451;SDS011;37521;52.020;-1.740;2023-08-21T01:25:05;0.63;;;0.52;;
51451;SDS011;37521;52.020;-1.740;2023-08-21T01:27:35;2.50;;;0.75;;
51451;SDS011;37521;52.020;-1.740;2023-08-21T01:30:04;1.90;;;0.68;;
51451;SDS011;37521;52.020;-1.740;2023-08-21T01:32:35;0.82;;;0.60;;
51451;SDS011;37521;52.020;-1.740;2023-08-21T01:35:07;2.13;;;1.25;;
51451;SDS011;37521;52.020;-1.740;2023-08-21T01:37:39;1.80;;;1.00;;
51451;SDS011;37521;52.020;-1.740;2023-08-21T01:40:10;1.20;;;0.60;;
51451;SDS011;37521;52.020;-1.740;2023-08-21T01:42:38;1.90;;;0.75;;
51451;SDS011;37521;52.020;-1.740;2023-08-21T01:45:07;2.50;;;0.80;;
51451;SDS011;37521;52.020;-1.740;2023-08-21T01:47:36;4.72;;;1.00;;
51451;SDS011;37521;52.020;-1.740;2023-08-21T01:50:07;3.60;;;0.95;;
51451;SDS011;37521;52.020;-1.740;2023-08-21T01:52:37;1.67;;;0.85;;
51451;SDS011;37521;52.020;-1.740;2023-08-21T01:55:06;2.00;;;0.68;;
51451;SDS011;37521;52.020;-1.740;2023-08-21T01:57:36;0.82;;;0.57;;
51451;SDS011;37521;52.020;-1.740;2023-08-21T02:00:06;2.67;;;0.90;;
51451;SDS011;37521;52.020;-1.740;2023-08-21T02:02:40;1.98;;;0.88;;
51451;SDS011;37521;52.020;-1.740;2023-08-21T02:05:09;1.50;;;0.60;;
51451;SDS011;37521;52.020;-1.740;2023-08-21T02:07:38;0.77;;;0.73;;
51451;SDS011;37521;52.020;-1.740;2023-08-21T02:10:07;1.60;;;0.52;;
51451;SDS011;37521;52.020;-1.740;2023-08-21T02:12:38;0.80;;;0.80;;
51451;SDS011;37521;52.020;-1.740;2023-08-21T02:15:08;1.88;;;0.60;;
51451;SDS011;37521;52.020;-1.740;2023-08-21T02:17:38;1.75;;;0.70;;
51451;SDS011;37521;52.020;-1.740;2023-08-21T02:20:11;1.20;;;0.73;;
51451;SDS011;37521;52.020;-1.740;2023-08-21T02:22:40;1.20;;;0.88;;
51451;SDS011;37521;52.020;-1.740;2023-08-21T02:25:08;0.93;;;0.90;;
51451;SDS011;37521;52.020;-1.740;2023-08-21T02:27:38;2.08;;;0.95;;
51451;SDS011;37521;52.020;-1.740;2023-08-21T02:30:07;1.45;;;0.80;;
51451;SDS011;37521;52.020;-1.740;2023-08-21T02:32:36;5.15;;;0.98;;
51451;SDS011;37521;52.020;-1.740;2023-08-21T02:35:07;2.08;;;0.82;;
51451;SDS011;37521;52.020;-1.740;2023-08-21T02:37:36;1.42;;;0.50;;
51451;SDS011;37521;52.020;-1.740;2023-08-21T02:40:06;4.85;;;1.02;;
51451;SDS011;37521;52.020;-1.740;2023-08-21T02:42:37;3.00;;;0.93;;
51451;SDS011;37521;52.020;-1.740;2023-08-21T02:45:06;1.85;;;0.98;;
51451;SDS011;37521;52.020;-1.740;2023-08-21T02:47:36;0.65;;;0.60;;
51451;SDS011;37521;52.020;-1.740;2023-08-21T02:50:06;4.38;;;1.35;;
51451;SDS011;37521;52.020;-1.740;2023-08-21T02:52:37;1.73;;;0.70;;
51451;SDS011;37521;52.020;-1.740;2023-08-21T02:55:07;0.88;;;0.77;;
51451;SDS011;37521;52.020;-1.740;2023-08-21T02:57:37;2.30;;;0.68;;
51451;SDS011;37521;52.020;-1.740;2023-08-21T03:00:06;2.45;;;1.17;;
51451;SDS011;37521;52.020;-1.740;2023-08-21T03:02:35;0.98;;;0.88;;
51451;SDS011;37521;52.020;-1.740;2023-08-21T03:05:04;0.60;;;0.52;;
51451;SDS011;37521;52.020;-1.740;2023-08-21T03:07:34;3.05;;;0.88;;
51451;SDS011;37521;52.020;-1.740;2023-08-21T03:10:03;1.95;;;0.70;;
51451;SDS011;37521;52.020;-1.740;2023-08-21T03:12:32;2.85;;;0.80;;
51451;SDS011;37521;52.020;-1.740;2023-08-21T03:15:02;0.73;;;0.73;;
51451;SDS011;37521;52.020;-1.740;2023-08-21T03:17:31;1.38;;;0.70;;
51451;SDS011;37521;52.020;-1.740;2023-08-21T03:20:00;1.33;;;0.90;;
51451;SDS011;37521;52.020;-1.740;2023-08-21T03:22:31;0.80;;;0.80;;
51451;SDS011;37521;52.020;-1.740;2023-08-21T03:24:59;1.42;;;1.33;;
51451;SDS011;37521;52.020;-1.740;2023-08-21T03:27:28;5.65;;;1.35;;
51451;SDS011;37521;52.020;-1.740;2023-08-21T03:29:57;1.95;;;1.40;;
51451;SDS011;37521;52.020;-1.740;2023-08-21T03:32:29;2.28;;;1.30;;
51451;SDS011;37521;52.020;-1.740;2023-08-21T03:34:58;3.05;;;1.42;;
51451;SDS011;37521;52.020;-1.740;2023-08-21T03:37:26;4.63;;;1.63;;
51451;SDS011;37521;52.020;-1.740;2023-08-21T03:39:55;1.13;;;1.02;;
51451;SDS011;37521;52.020;-1.740;2023-08-21T03:42:24;3.72;;;1.52;;
51451;SDS011;37521;52.020;-1.740;2023-08-21T03:44:53;1.25;;;1.00;;
51451;SDS011;37521;52.020;-1.740;2023-08-21T03:47:21;2.85;;;1.50;;
51451;SDS011;37521;52.020;-1.740;2023-08-21T03:49:58;1.92;;;0.90;;
51451;SDS011;37521;52.020;-1.740;2023-08-21T03:52:27;1.38;;;0.90;;
51451;SDS011;37521;52.020;-1.740;2023-08-21T03:54:55;0.95;;;0.75;;
51451;SDS011;37521;52.020;-1.740;2023-08-21T03:57:24;1.77;;;1.20;;
51451;SDS011;37521;52.020;-1.740;2023-08-21T03:59:52;1.25;;;1.10;;
51451;SDS011;37521;52.020;-1.740;2023-08-21T04:02:20;2.08;;;0.93;;
51451;SDS011;37521;52.020;-1.740;2023-08-21T04:04:52;1.45;;;0.80;;
51451;SDS011;37521;52.020;-1.740;2023-08-21T04:07:22;1.27;;;1.17;;
51451;SDS011;37521;52.020;-1.740;2023-08-21T04:09:50;1.58;;;0.80;;
51451;SDS011;37521;52.020;-1.740;2023-08-21T04:12:18;2.42;;;0.98;;
51451;SDS011;37521;52.020;-1.740;2023-08-21T04:14:47;2.33;;;1.20;;
51451;SDS011;37521;52.020;-1.740;2023-08-21T04:17:19;0.98;;;0.55;;
51451;SDS011;37521;52.020;-1.740;2023-08-21T04:22:17;1.45;;;0.50;;
51451;SDS011;37521;52.020;-1.740;2023-08-21T04:24:47;1.30;;;0.68;;
51451;SDS011;37521;52.020;-1.740;2023-08-21T04:27:15;1.77;;;0.85;;
51451;SDS011;37521;52.020;-1.740;2023-08-21T04:29:43;1.58;;;0.63;;
51451;SDS011;37521;52.020;-1.740;2023-08-21T04:32:12;1.05;;;0.93;;
51451;SDS011;37521;52.020;-1.740;2023-08-21T04:34:41;0.80;;;0.80;;
51451;SDS011;37521;52.020;-1.740;2023-08-21T04:37:09;2.28;;;0.73;;
51451;SDS011;37521;52.020;-1.740;2023-08-21T04:39:37;1.80;;;0.85;;
51451;SDS011;37521;52.020;-1.740;2023-08-21T04:42:09;1.13;;;0.70;;
51451;SDS011;37521;52.020;-1.740;2023-08-21T04:44:37;1.90;;;1.33;;
51451;SDS011;37521;52.020;-1.740;2023-08-21T04:47:19;2.35;;;1.10;;
51451;SDS011;37521;52.020;-1.740;2023-08-21T04:49:50;2.03;;;0.80;;
51451;SDS011;37521;52.020;-1.740;2023-08-21T04:52:19;1.23;;;0.93;;
51451;SDS011;37521;52.020;-1.740;2023-08-21T04:54:48;1.52;;;0.90;;
51451;SDS011;37521;52.020;-1.740;2023-08-21T04:57:18;1.83;;;1.02;;
51451;SDS011;37521;52.020;-1.740;2023-08-21T04:59:48;0.88;;;0.70;;
51451;SDS011;37521;52.020;-1.740;2023-08-21T05:02:18;0.73;;;0.73;;
51451;SDS011;37521;52.020;-1.740;2023-08-21T05:04:48;2.28;;;1.00;;
51451;SDS011;37521;52.020;-1.740;2023-08-21T05:07:18;3.55;;;1.75;;
51451;SDS011;37521;52.020;-1.740;2023-08-21T05:09:46;0.93;;;0.88;;
51451;SDS011;37521;52.020;-1.740;2023-08-21T05:12:20;0.90;;;0.77;;
51451;SDS011;37521;52.020;-1.740;2023-08-21T05:14:48;2.50;;;0.98;;
51451;SDS011;37521;52.020;-1.740;2023-08-21T05:17:16;2.22;;;1.42;;
51451;SDS011;37521;52.020;-1.740;2023-08-21T05:19:45;3.40;;;1.60;;
51451;SDS011;37521;52.020;-1.740;2023-08-21T05:22:13;4.68;;;1.55;;
51451;SDS011;37521;52.020;-1.740;2023-08-21T05:24:42;5.15;;;1.73;;
51451;SDS011;37521;52.020;-1.740;2023-08-21T05:27:10;3.80;;;1.52;;
51451;SDS011;37521;52.020;-1.740;2023-08-21T05:29:40;1.75;;;1.48;;
51451;SDS011;37521;52.020;-1.740;2023-08-21T05:32:08;2.17;;;1.60;;
51451;SDS011;37521;52.020;-1.740;2023-08-21T05:34:37;3.65;;;1.50;;
51451;SDS011;37521;52.020;-1.740;2023-08-21T05:37:06;4.97;;;1.67;;
51451;SDS011;37521;52.020;-1.740;2023-08-21T05:39:34;2.40;;;1.17;;
51451;SDS011;37521;52.020;-1.740;2023-08-21T05:42:04;4.15;;;2.28;;
51451;SDS011;37521;52.020;-1.740;2023-08-21T05:44:32;1.30;;;1.20;;
51451;SDS011;37521;52.020;-1.740;2023-08-21T05:47:02;2.20;;;1.70;;
51451;SDS011;37521;52.020;-1.740;2023-08-21T05:49:32;2.55;;;1.33;;
51451;SDS011;37521;52.020;-1.740;2023-08-21T05:52:00;2.92;;;1.38;;
51451;SDS011;37521;52.020;-1.740;2023-08-21T05:54:29;3.45;;;1.75;;
51451;SDS011;37521;52.020;-1.740;2023-08-21T05:56:58;2.63;;;1.38;;
51451;SDS011;37521;52.020;-1.740;2023-08-21T05:59:29;2.38;;;1.40;;
51451;SDS011;37521;52.020;-1.740;2023-08-21T06:02:02;2.47;;;1.35;;
51451;SDS011;37521;52.020;-1.740;2023-08-21T06:04:31;1.52;;;1.10;;
51451;SDS011;37521;52.020;-1.740;2023-08-21T06:07:01;2.17;;;1.55;;
51451;SDS011;37521;52.020;-1.740;2023-08-21T06:09:30;3.67;;;1.27;;
51451;SDS011;37521;52.020;-1.740;2023-08-21T06:12:00;1.45;;;1.35;;
51451;SDS011;37521;52.020;-1.740;2023-08-21T06:14:31;1.35;;;1.25;;
51451;SDS011;37521;52.020;-1.740;2023-08-21T06:17:00;1.92;;;1.38;;
51451;SDS011;37521;52.020;-1.740;2023-08-21T06:19:32;3.15;;;1.33;;
51451;SDS011;37521;52.020;-1.740;2023-08-21T06:22:00;1.70;;;1.08;;
51451;SDS011;37521;52.020;-1.740;2023-08-21T06:24:29;2.17;;;0.98;;
51451;SDS011;37521;52.020;-1.740;2023-08-21T06:27:01;1.83;;;1.15;;
51451;SDS011;37521;52.020;-1.740;2023-08-21T06:29:34;2.42;;;1.00;;
51451;SDS011;37521;52.020;-1.740;2023-08-21T06:32:05;1.25;;;0.90;;
51451;SDS011;37521;52.020;-1.740;2023-08-21T06:34:34;2.25;;;1.42;;
51451;SDS011;37521;52.020;-1.740;2023-08-21T06:37:02;1.38;;;1.25;;
51451;SDS011;37521;52.020;-1.740;2023-08-21T06:39:31;1.73;;;1.30;;
51451;SDS011;37521;52.020;-1.740;2023-08-21T06:42:00;1.35;;;1.02;;
51451;SDS011;37521;52.020;-1.740;2023-08-21T06:44:37;1.83;;;1.38;;
51451;SDS011;37521;52.020;-1.740;2023-08-21T06:47:07;1.88;;;0.98;;
51451;SDS011;37521;52.020;-1.740;2023-08-21T06:49:36;1.20;;;1.10;;
51451;SDS011;37521;52.020;-1.740;2023-08-21T06:52:05;1.67;;;1.50;;
51451;SDS011;37521;52.020;-1.740;2023-08-21T06:54:33;2.90;;;1.77;;
51451;SDS011;37521;52.020;-1.740;2023-08-21T06:57:02;1.30;;;1.20;;
51451;SDS011;37521;52.020;-1.740;2023-08-21T06:59:30;1.67;;;1.55;;
51451;SDS011;37521;52.020;-1.740;2023-08-21T07:02:02;4.75;;;1.67;;
51451;SDS011;37521;52.020;-1.740;2023-08-21T07:04:32;1.17;;;1.08;;
51451;SDS011;37521;52.020;-1.740;2023-08-21T07:07:00;1.85;;;1.25;;
51451;SDS011;37521;52.020;-1.740;2023-08-21T07:09:29;1.95;;;1.02;;
51451;SDS011;37521;52.020;-1.740;2023-08-21T07:11:57;1.27;;;1.13;;
51451;SDS011;37521;52.020;-1.740;2023-08-21T07:14:26;2.15;;;1.10;;
51451;SDS011;37521;52.020;-1.740;2023-08-21T07:16:54;3.13;;;1.65;;
51451;SDS011;37521;52.020;-1.740;2023-08-21T07:19:23;1.55;;;1.38;;
51451;SDS011;37521;52.020;-1.740;2023-08-21T07:21:52;0.70;;;0.70;;
51451;SDS011;37521;52.020;-1.740;2023-08-21T07:24:21;2.72;;;1.08;;
51451;SDS011;37521;52.020;-1.740;2023-08-21T07:26:49;2.58;;;1.50;;
51451;SDS011;37521;52.020;-1.740;2023-08-21T07:29:18;2.15;;;1.10;;
51451;SDS011;37521;52.020;-1.740;2023-08-21T07:31:46;7.00;;;1.30;;
51451;SDS011;37521;52.020;-1.740;2023-08-21T07:34:15;4.20;;;1.30;;
51451;SDS011;37521;52.020;-1.740;2023-08-21T07:36:43;1.83;;;1.20;;
51451;SDS011;37521;52.020;-1.740;2023-08-21T07:39:13;2.25;;;1.30;;
51451;SDS011;37521;52.020;-1.740;2023-08-21T07:41:42;2.05;;;0.85;;
51451;SDS011;37521;52.020;-1.740;2023-08-21T07:44:10;1.13;;;0.90;;
51451;SDS011;37521;52.020;-1.740;2023-08-21T07:46:39;1.23;;;0.88;;
51451;SDS011;37521;52.020;-1.740;2023-08-21T07:49:07;1.15;;;1.05;;
51451;SDS011;37521;52.020;-1.740;2023-08-21T07:51:36;1.10;;;1.00;;
51451;SDS011;37521;52.020;-1.740;2023-08-21T07:54:04;3.85;;;1.10;;
51451;SDS011;37521;52.020;-1.740;2023-08-21T07:56:34;4.32;;;1.00;;
51451;SDS011;37521;52.020;-1.740;2023-08-21T07:59:03;3.92;;;1.13;;
51451;SDS011;37521;52.020;-1.740;2023-08-21T08:01:31;2.13;;;0.93;;
51451;SDS011;37521;52.020;-1.740;2023-08-21T08:04:00;4.00;;;1.35;;
51451;SDS011;37521;52.020;-1.740;2023-08-21T08:06:29;1.02;;;1.00;;
51451;SDS011;37521;52.020;-1.740;2023-08-21T08:08:57;1.00;;;0.88;;
51451;SDS011;37521;52.020;-1.740;2023-08-21T08:11:26;3.90;;;1.52;;
51451;SDS011;37521;52.020;-1.740;2023-08-21T08:13:56;3.30;;;1.40;;
51451;SDS011;37521;52.020;-1.740;2023-08-21T08:16:24;2.30;;;1.50;;
51451;SDS011;37521;52.020;-1.740;2023-08-21T08:18:53;2.22;;;1.30;;
51451;SDS011;37521;52.020;-1.740;2023-08-21T08:21:21;2.50;;;1.60;;
51451;SDS011;37521;52.020;-1.740;2023-08-21T08:23:50;3.50;;;1.42;;
51451;SDS011;37521;52.020;-1.740;2023-08-21T08:26:18;1.77;;;1.08;;
51451;SDS011;37521;52.020;-1.740;2023-08-21T08:28:47;3.55;;;1.25;;
51451;SDS011;37521;52.020;-1.740;2023-08-21T08:31:18;3.20;;;1.30;;
51451;SDS011;37521;52.020;-1.740;2023-08-21T08:33:47;2.67;;;1.00;;
51451;SDS011;37521;52.020;-1.740;2023-08-21T08:36:15;1.55;;;1.08;;
51451;SDS011;37521;52.020;-1.740;2023-08-21T08:38:44;4.07;;;1.20;;
51451;SDS011;37521;52.020;-1.740;2023-08-21T08:41:14;1.83;;;0.80;;
51451;SDS011;37521;52.020;-1.740;2023-08-21T08:43:52;2.47;;;0.93;;
51451;SDS011;37521;52.020;-1.740;2023-08-21T08:46:27;2.40;;;1.08;;
51451;SDS011;37521;52.020;-1.740;2023-08-21T08:48:57;3.85;;;0.98;;
51451;SDS011;37521;52.020;-1.740;2023-08-21T08:51:27;3.47;;;1.13;;
51451;SDS011;37521;52.020;-1.740;2023-08-21T08:53:58;2.15;;;0.80;;
51451;SDS011;37521;52.020;-1.740;2023-08-21T08:56:27;1.15;;;0.80;;
51451;SDS011;37521;52.020;-1.740;2023-08-21T08:58:56;4.15;;;0.95;;
51451;SDS011;37521;52.020;-1.740;2023-08-21T09:01:24;2.25;;;0.90;;
51451;SDS011;37521;52.020;-1.740;2023-08-21T09:03:54;1.63;;;0.98;;
51451;SDS011;37521;52.020;-1.740;2023-08-21T09:06:23;5.53;;;1.23;;
51451;SDS011;37521;52.020;-1.740;2023-08-21T09:08:55;2.30;;;0.95;;
51451;SDS011;37521;52.020;-1.740;2023-08-21T09:11:24;2.50;;;0.90;;
51451;SDS011;37521;52.020;-1.740;2023-08-21T09:13:55;1.00;;;0.73;;
51451;SDS011;37521;52.020;-1.740;2023-08-21T09:16:24;1.20;;;0.70;;
51451;SDS011;37521;52.020;-1.740;2023-08-21T09:18:55;0.82;;;0.52;;
51451;SDS011;37521;52.020;-1.740;2023-08-21T09:21:25;2.25;;;1.02;;
51451;SDS011;37521;52.020;-1.740;2023-08-21T09:23:56;0.47;;;0.47;;
51451;SDS011;37521;52.020;-1.740;2023-08-21T09:26:26;1.27;;;0.60;;
51451;SDS011;37521;52.020;-1.740;2023-08-21T09:28:55;2.30;;;0.88;;
51451;SDS011;37521;52.020;-1.740;2023-08-21T09:31:29;0.70;;;0.60;;
51451;SDS011;37521;52.020;-1.740;2023-08-21T09:34:01;1.45;;;0.70;;
51451;SDS011;37521;52.020;-1.740;2023-08-21T09:36:31;1.85;;;0.65;;
51451;SDS011;37521;52.020;-1.740;2023-08-21T09:39:00;0.50;;;0.40;;
51451;SDS011;37521;52.020;-1.740;2023-08-21T09:41:30;2.60;;;0.90;;
51451;SDS011;37521;52.020;-1.740;2023-08-21T09:43:58;0.60;;;0.50;;
51451;SDS011;37521;52.020;-1.740;2023-08-21T09:46:27;0.80;;;0.60;;
51451;SDS011;37521;52.020;-1.740;2023-08-21T09:48:56;1.27;;;0.90;;
51451;SDS011;37521;52.020;-1.740;2023-08-21T09:51:26;1.88;;;0.68;;
51451;SDS011;37521;52.020;-1.740;2023-08-21T09:53:55;1.13;;;0.85;;
51451;SDS011;37521;52.020;-1.740;2023-08-21T09:56:24;4.47;;;0.93;;
51451;SDS011;37521;52.020;-1.740;2023-08-21T09:58:53;1.55;;;0.77;;
51451;SDS011;37521;52.020;-1.740;2023-08-21T10:01:22;2.17;;;0.75;;
51451;SDS011;37521;52.020;-1.740;2023-08-21T10:03:52;0.55;;;0.55;;
51451;SDS011;37521;52.020;-1.740;2023-08-21T10:06:25;0.63;;;0.50;;
51451;SDS011;37521;52.020;-1.740;2023-08-21T10:08:54;1.67;;;0.75;;
51451;SDS011;37521;52.020;-1.740;2023-08-21T10:11:25;0.68;;;0.68;;
51451;SDS011;37521;52.020;-1.740;2023-08-21T10:13:54;1.55;;;0.47;;
51451;SDS011;37521;52.020;-1.740;2023-08-21T10:16:24;3.03;;;0.77;;
51451;SDS011;37521;52.020;-1.740;2023-08-21T10:18:53;0.50;;;0.50;;
51451;SDS011;37521;52.020;-1.740;2023-08-21T10:21:22;0.70;;;0.50;;
51451;SDS011;37521;52.020;-1.740;2023-08-21T10:23:56;0.75;;;0.60;;
51451;SDS011;37521;52.020;-1.740;2023-08-21T10:26:24;1.33;;;0.60;;
51451;SDS011;37521;52.020;-1.740;2023-08-21T10:28:59;0.55;;;0.55;;
51451;SDS011;37521;52.020;-1.740;2023-08-21T10:31:33;1.75;;;0.75;;
51451;SDS011;37521;52.020;-1.740;2023-08-21T10:34:03;1.55;;;0.50;;
51451;SDS011;37521;52.020;-1.740;2023-08-21T10:39:32;1.13;;;0.70;;
51451;SDS011;37521;52.020;-1.740;2023-08-21T10:42:05;1.02;;;0.47;;
51451;SDS011;37521;52.020;-1.740;2023-08-21T10:44:48;1.65;;;0.60;;
51451;SDS011;37521;52.020;-1.740;2023-08-21T10:47:20;3.83;;;0.30;;
51451;SDS011;37521;52.020;-1.740;2023-08-21T10:49:51;0.93;;;0.50;;
51451;SDS011;37521;52.020;-1.740;2023-08-21T10:52:22;3.42;;;0.47;;
51451;SDS011;37521;52.020;-1.740;2023-08-21T10:54:53;2.40;;;0.73;;
51451;SDS011;37521;52.020;-1.740;2023-08-21T10:57:22;0.90;;;0.45;;
51451;SDS011;37521;52.020;-1.740;2023-08-21T10:59:52;2.70;;;0.65;;
51451;SDS011;37521;52.020;-1.740;2023-08-21T11:02:22;5.40;;;0.95;;
51451;SDS011;37521;52.020;-1.740;2023-08-21T11:04:51;1.30;;;0.65;;
51451;SDS011;37521;52.020;-1.740;2023-08-21T11:07:21;0.90;;;0.68;;
51451;SDS011;37521;52.020;-1.740;2023-08-21T11:09:50;0.68;;;0.68;;
51451;SDS011;37521;52.020;-1.740;2023-08-21T11:12:20;1.48;;;0.50;;
51451;SDS011;37521;52.020;-1.740;2023-08-21T11:14:51;2.20;;;0.60;;
51451;SDS011;37521;52.020;-1.740;2023-08-21T11:17:19;1.92;;;0.80;;
51451;SDS011;37521;52.020;-1.740;2023-08-21T11:19:50;1.63;;;0.52;;
51451;SDS011;37521;52.020;-1.740;2023-08-21T11:22:19;1.65;;;0.60;;
51451;SDS011;37521;52.020;-1.740;2023-08-21T11:24:47;3.58;;;0.80;;
51451;SDS011;37521;52.020;-1.740;2023-08-21T11:27:18;1.20;;;0.93;;
51451;SDS011;37521;52.020;-1.740;2023-08-21T11:29:59;0.55;;;0.55;;
51451;SDS011;37521;52.020;-1.740;2023-08-21T11:32:28;2.22;;;0.47;;
51451;SDS011;37521;52.020;-1.740;2023-08-21T11:34:57;0.65;;;0.50;;
51451;SDS011;37521;52.020;-1.740;2023-08-21T11:37:26;0.68;;;0.40;;
51451;SDS011;37521;52.020;-1.740;2023-08-21T11:39:57;1.15;;;0.45;;
51451;SDS011;37521;52.020;-1.740;2023-08-21T11:42:30;1.00;;;0.88;;
51451;SDS011;37521;52.020;-1.740;2023-08-21T11:45:00;1.38;;;0.70;;
51451;SDS011;37521;52.020;-1.740;2023-08-21T11:47:32;1.80;;;0.50;;
51451;SDS011;37521;52.020;-1.740;2023-08-21T11:50:03;0.77;;;0.70;;
51451;SDS011;37521;52.020;-1.740;2023-08-21T11:52:32;0.98;;;0.75;;
51451;SDS011;37521;52.020;-1.740;2023-08-21T11:55:07;1.33;;;0.68;;
51451;SDS011;37521;52.020;-1.740;2023-08-21T11:57:46;1.13;;;1.00;;
51451;SDS011;37521;52.020;-1.740;2023-08-21T12:00:17;2.38;;;0.60;;
51451;SDS011;37521;52.020;-1.740;2023-08-21T12:02:55;0.50;;;0.50;;
51451;SDS011;37521;52.020;-1.740;2023-08-21T12:05:25;1.27;;;0.63;;
51451;SDS011;37521;52.020;-1.740;2023-08-21T12:07:55;0.82;;;0.70;;
51451;SDS011;37521;52.020;-1.740;2023-08-21T12:10:24;2.00;;;0.80;;
51451;SDS011;37521;52.020;-1.740;2023-08-21T12:12:54;0.77;;;0.77;;
51451;SDS011;37521;52.020;-1.740;2023-08-21T12:15:23;1.35;;;0.82;;
51451;SDS011;37521;52.020;-1.740;2023-08-21T12:17:52;2.67;;;0.63;;
51451;SDS011;37521;52.020;-1.740;2023-08-21T12:20:21;3.05;;;0.63;;
51451;SDS011;37521;52.020;-1.740;2023-08-21T12:22:49;1.20;;;0.75;;
51451;SDS011;37521;52.020;-1.740;2023-08-21T12:25:18;5.68;;;0.80;;
51451;SDS011;37521;52.020;-1.740;2023-08-21T12:27:46;0.60;;;0.40;;
51451;SDS011;37521;52.020;-1.740;2023-08-21T12:30:28;1.52;;;0.60;;
51451;SDS011;37521;52.020;-1.740;2023-08-21T12:32:56;2.63;;;0.60;;
51451;SDS011;37521;52.020;-1.740;2023-08-21T12:35:45;0.60;;;0.45;;
51451;SDS011;37521;52.020;-1.740;2023-08-21T12:38:14;2.45;;;0.63;;
51451;SDS011;37521;52.020;-1.740;2023-08-21T12:40:42;0.50;;;0.50;;
51451;SDS011;37521;52.020;-1.740;2023-08-21T12:43:11;0.82;;;0.52;;
51451;SDS011;37521;52.020;-1.740;2023-08-21T12:45:41;0.77;;;0.65;;
51451;SDS011;37521;52.020;-1.740;2023-08-21T12:48:10;3.50;;;0.85;;
51451;SDS011;37521;52.020;-1.740;2023-08-21T12:50:39;0.85;;;0.30;;
51451;SDS011;37521;52.020;-1.740;2023-08-21T12:53:07;0.30;;;0.30;;
51451;SDS011;37521;52.020;-1.740;2023-08-21T12:55:35;0.38;;;0.38;;
51451;SDS011;37521;52.020;-1.740;2023-08-21T12:58:04;2.42;;;0.70;;
51451;SDS011;37521;52.020;-1.740;2023-08-21T13:00:32;0.32;;;0.30;;
51451;SDS011;37521;52.020;-1.740;2023-08-21T13:03:02;0.50;;;0.30;;
51451;SDS011;37521;52.020;-1.740;2023-08-21T13:05:31;1.85;;;0.50;;
51451;SDS011;37521;52.020;-1.740;2023-08-21T13:08:01;1.15;;;0.60;;
51451;SDS011;37521;52.020;-1.740;2023-08-21T13:10:29;2.13;;;0.93;;
51451;SDS011;37521;52.020;-1.740;2023-08-21T13:12:58;0.85;;;0.50;;
51451;SDS011;37521;52.020;-1.740;2023-08-21T13:15:26;0.60;;;0.55;;
51451;SDS011;37521;52.020;-1.740;2023-08-21T13:17:55;1.75;;;0.63;;
51451;SDS011;37521;52.020;-1.740;2023-08-21T13:20:25;0.47;;;0.47;;
51451;SDS011;37521;52.020;-1.740;2023-08-21T13:22:54;2.15;;;0.55;;
51451;SDS011;37521;52.020;-1.740;2023-08-21T13:25:23;0.70;;;0.70;;
51451;SDS011;37521;52.020;-1.740;2023-08-21T13:27:52;0.82;;;0.65;;
51451;SDS011;37521;52.020;-1.740;2023-08-21T13:30:21;2.17;;;0.47;;
51451;SDS011;37521;52.020;-1.740;2023-08-21T13:32:50;2.75;;;0.98;;
51451;SDS011;37521;52.020;-1.740;2023-08-21T13:35:19;0.70;;;0.70;;
51451;SDS011;37521;52.020;-1.740;2023-08-21T13:37:51;1.33;;;0.60;;
51451;SDS011;37521;52.020;-1.740;2023-08-21T13:40:19;1.35;;;0.73;;
51451;SDS011;37521;52.020;-1.740;2023-08-21T13:42:48;1.02;;;0.63;;
51451;SDS011;37521;52.020;-1.740;2023-08-21T13:45:18;1.58;;;1.00;;
51451;SDS011;37521;52.020;-1.740;2023-08-21T13:47:48;1.20;;;0.80;;
51451;SDS011;37521;52.020;-1.740;2023-08-21T13:50:17;0.60;;;0.60;;
51451;SDS011;37521;52.020;-1.740;2023-08-21T13:52:46;0.50;;;0.50;;
51451;SDS011;37521;52.020;-1.740;2023-08-21T13:55:16;5.10;;;1.00;;
51451;SDS011;37521;52.020;-1.740;2023-08-21T13:57:45;0.77;;;0.77;;
51451;SDS011;37521;52.020;-1.740;2023-08-21T14:00:14;0.98;;;0.88;;
51451;SDS011;37521;52.020;-1.740;2023-08-21T14:02:44;0.65;;;0.63;;
51451;SDS011;37521;52.020;-1.740;2023-08-21T14:05:13;1.95;;;0.60;;
51451;SDS011;37521;52.020;-1.740;2023-08-21T14:07:41;1.40;;;0.47;;
51451;SDS011;37521;52.020;-1.740;2023-08-21T14:10:10;2.47;;;1.15;;
51451;SDS011;37521;52.020;-1.740;2023-08-21T14:12:42;0.98;;;0.70;;
51451;SDS011;37521;52.020;-1.740;2023-08-21T14:15:11;1.38;;;0.80;;
51451;SDS011;37521;52.020;-1.740;2023-08-21T14:17:39;0.85;;;0.50;;
51451;SDS011;37521;52.020;-1.740;2023-08-21T14:20:09;2.10;;;1.60;;
51451;SDS011;37521;52.020;-1.740;2023-08-21T14:22:39;3.13;;;0.63;;
51451;SDS011;37521;52.020;-1.740;2023-08-21T14:25:08;1.20;;;0.85;;
51451;SDS011;37521;52.020;-1.740;2023-08-21T14:27:37;1.70;;;0.70;;
51451;SDS011;37521;52.020;-1.740;2023-08-21T14:30:08;1.65;;;0.60;;
51451;SDS011;37521;52.020;-1.740;2023-08-21T14:32:38;2.70;;;0.70;;
51451;SDS011;37521;52.020;-1.740;2023-08-21T14:35:07;0.43;;;0.43;;
51451;SDS011;37521;52.020;-1.740;2023-08-21T14:37:36;1.75;;;0.80;;
51451;SDS011;37521;52.020;-1.740;2023-08-21T14:40:06;1.65;;;0.60;;
51451;SDS011;37521;52.020;-1.740;2023-08-21T14:42:36;1.45;;;0.52;;
51451;SDS011;37521;52.020;-1.740;2023-08-21T14:45:08;0.45;;;0.45;;
51451;SDS011;37521;52.020;-1.740;2023-08-21T14:47:36;1.05;;;0.90;;
51451;SDS011;37521;52.020;-1.740;2023-08-21T14:50:05;0.70;;;0.70;;
51451;SDS011;37521;52.020;-1.740;2023-08-21T14:52:34;2.60;;;0.90;;